createdAt,value
2022-08-03T00:02:11.228Z,18.79
2022-08-03T00:04:41.780Z,18.77
2022-08-03T00:07:22.512Z,18.74
2022-08-03T00:09:53.322Z,18.73
2022-08-03T00:12:37.333Z,18.70
2022-08-03T00:15:11.267Z,18.69
2022-08-03T00:17:52.597Z,18.67
2022-08-03T00:20:24.955Z,18.64
2022-08-03T00:22:55.592Z,18.62
2022-08-03T00:25:26.538Z,18.62
2022-08-03T00:28:02.017Z,18.59
2022-08-03T00:30:32.680Z,18.59
2022-08-03T00:33:03.989Z,18.59
2022-08-03T00:35:51.050Z,18.57
2022-08-03T00:38:21.977Z,18.55
2022-08-03T00:40:52.598Z,18.51
2022-08-03T00:43:27.814Z,18.49
2022-08-03T00:46:03.000Z,18.47
2022-08-03T00:48:33.940Z,18.46
2022-08-03T00:51:04.926Z,18.45
2022-08-03T00:53:37.944Z,18.44
2022-08-03T00:56:08.919Z,18.42
2022-08-03T00:58:40.475Z,18.41
2022-08-03T01:01:12.486Z,18.39
2022-08-03T01:03:45.865Z,18.38
2022-08-03T01:06:21.239Z,18.36
2022-08-03T01:09:07.923Z,18.34
2022-08-03T01:12:00.991Z,18.30
2022-08-03T01:14:39.601Z,18.25
2022-08-03T01:17:15.927Z,18.23
2022-08-03T01:19:53.502Z,18.23
2022-08-03T01:22:52.923Z,18.25
2022-08-03T01:25:36.448Z,18.26
2022-08-03T01:28:27.866Z,18.24
2022-08-03T01:31:04.362Z,18.21
2022-08-03T01:33:40.405Z,18.19
2022-08-03T01:36:18.973Z,18.16
2022-08-03T01:39:00.161Z,18.13
2022-08-03T01:41:40.127Z,18.10
2022-08-03T01:44:29.417Z,18.09
2022-08-03T01:47:11.829Z,18.08
2022-08-03T01:49:45.156Z,18.07
2022-08-03T01:52:19.818Z,18.07
2022-08-03T01:54:53.585Z,18.04
2022-08-03T01:57:26.425Z,18.00
2022-08-03T02:00:00.762Z,17.96
2022-08-03T02:02:34.636Z,17.93
2022-08-03T02:05:10.937Z,17.92
2022-08-03T02:07:44.507Z,17.91
2022-08-03T02:10:34.285Z,17.92
2022-08-03T02:13:10.823Z,17.92
2022-08-03T02:15:42.531Z,17.94
2022-08-03T02:18:25.300Z,17.97
2022-08-03T02:20:56.966Z,17.97
2022-08-03T02:23:35.402Z,17.96
2022-08-03T02:26:09.264Z,17.97
2022-08-03T02:28:49.647Z,17.97
2022-08-03T02:31:24.263Z,17.97
2022-08-03T02:34:03.278Z,17.94
2022-08-03T02:36:39.404Z,17.90
2022-08-03T02:39:14.699Z,17.84
2022-08-03T02:42:02.451Z,17.79
2022-08-03T02:44:47.746Z,17.73
2022-08-03T02:47:23.002Z,17.69
2022-08-03T02:49:58.874Z,17.65
2022-08-03T02:52:31.855Z,17.61
2022-08-03T02:55:23.532Z,17.58
2022-08-03T02:58:00.904Z,17.55
2022-08-03T03:00:34.378Z,17.52
2022-08-03T03:03:07.169Z,17.50
2022-08-03T03:05:52.107Z,17.48
2022-08-03T03:08:26.773Z,17.44
2022-08-03T03:11:02.060Z,17.44
2022-08-03T03:13:33.543Z,17.42
2022-08-03T03:16:27.184Z,17.43
2022-08-03T03:18:58.461Z,17.45
2022-08-03T03:21:30.664Z,17.48
2022-08-03T03:24:13.369Z,17.49
2022-08-03T03:26:46.829Z,17.48
2022-08-03T03:29:16.320Z,17.45
2022-08-03T03:31:47.641Z,17.41
2022-08-03T03:34:19.280Z,17.37
2022-08-03T03:36:50.119Z,17.34
2022-08-03T03:39:20.833Z,17.32
2022-08-03T03:41:55.289Z,17.30
2022-08-03T03:44:27.441Z,17.28
2022-08-03T03:46:58.580Z,17.27
2022-08-03T03:49:29.771Z,17.24
2022-08-03T03:52:03.680Z,17.25
2022-08-03T03:54:44.288Z,17.25
2022-08-03T03:57:15.114Z,17.25
2022-08-03T03:59:46.385Z,17.28
2022-08-03T04:02:17.903Z,17.41
2022-08-03T04:05:16.467Z,17.52
2022-08-03T04:08:27.790Z,17.57
2022-08-03T04:11:08.605Z,17.63
2022-08-03T04:13:41.830Z,17.69
2022-08-03T04:16:16.279Z,17.72
2022-08-03T04:18:58.907Z,17.72
2022-08-03T04:21:33.998Z,17.73
2022-08-03T04:24:08.308Z,17.73
2022-08-03T04:26:41.268Z,17.70
2022-08-03T04:29:14.145Z,17.69
2022-08-03T04:31:47.703Z,17.66
2022-08-03T04:34:19.091Z,17.64
2022-08-03T04:36:54.989Z,17.62
2022-08-03T04:39:29.409Z,17.60
2022-08-03T04:42:08.200Z,17.59
2022-08-03T04:44:42.233Z,17.58
2022-08-03T04:47:13.165Z,17.58
2022-08-03T04:49:44.560Z,17.59
2022-08-03T04:52:18.420Z,17.60
2022-08-03T04:55:08.292Z,17.62
2022-08-03T04:57:39.210Z,17.64
2022-08-03T05:00:13.197Z,17.66
2022-08-03T05:02:43.868Z,17.68
2022-08-03T05:05:49.473Z,17.69
2022-08-03T05:08:27.856Z,17.72
2022-08-03T05:11:10.359Z,17.77
2022-08-03T05:13:41.108Z,17.81
2022-08-03T05:16:21.901Z,17.86
2022-08-03T05:19:12.839Z,17.92
2022-08-03T05:21:52.367Z,17.98
2022-08-03T05:24:32.809Z,18.04
2022-08-03T05:27:17.475Z,18.13
2022-08-03T05:33:23.925Z,18.28
2022-08-03T05:36:08.772Z,18.35
2022-08-03T05:38:51.243Z,18.42
2022-08-03T05:41:36.576Z,18.48
2022-08-03T05:44:19.602Z,18.58
2022-08-03T05:46:59.381Z,18.66
2022-08-03T05:49:34.161Z,18.74
2022-08-03T05:52:12.653Z,18.83
2022-08-03T05:54:56.151Z,18.93
2022-08-03T05:57:28.214Z,19.03
2022-08-03T06:00:01.508Z,19.13
2022-08-03T06:02:45.680Z,19.26
2022-08-03T06:05:16.585Z,19.38
2022-08-03T06:07:48.083Z,19.45
2022-08-03T06:10:36.004Z,19.57
2022-08-03T06:13:08.555Z,19.69
2022-08-03T06:15:39.474Z,19.77
2022-08-03T06:18:24.825Z,19.88
2022-08-03T06:21:14.801Z,20.00
2022-08-03T06:23:55.520Z,20.11
2022-08-03T06:26:31.823Z,20.20
2022-08-03T06:29:03.950Z,20.32
2022-08-03T06:31:36.539Z,20.51
2022-08-03T06:34:32.954Z,20.76
2022-08-03T06:37:02.369Z,21.08
2022-08-03T06:39:33.581Z,21.37
2022-08-03T06:42:04.969Z,21.70
2022-08-03T06:44:40.397Z,22.01
2022-08-03T06:47:13.636Z,22.25
2022-08-03T06:50:12.720Z,22.49
2022-08-03T06:52:41.839Z,22.77
2022-08-03T06:55:17.403Z,22.98
2022-08-03T06:57:54.501Z,23.22
2022-08-03T07:00:35.038Z,23.52
2022-08-03T07:03:11.160Z,23.80
2022-08-03T07:05:53.477Z,24.05
2022-08-03T07:08:33.144Z,24.23
2022-08-03T07:11:12.223Z,24.38
2022-08-03T07:13:47.665Z,24.52
2022-08-03T07:16:23.635Z,24.66
2022-08-03T07:18:59.578Z,24.82
2022-08-03T07:21:39.086Z,24.96
2022-08-03T07:24:14.320Z,25.08
2022-08-03T07:26:49.228Z,25.16
2022-08-03T07:29:22.541Z,25.20
2022-08-03T07:31:57.609Z,25.28
2022-08-03T07:34:32.906Z,25.33
2022-08-03T07:37:09.900Z,25.35
2022-08-03T07:39:40.960Z,25.37
2022-08-03T07:42:10.356Z,25.42
2022-08-03T07:44:43.060Z,25.48
2022-08-03T07:47:22.255Z,25.50
2022-08-03T07:49:53.670Z,25.48
2022-08-03T07:52:40.270Z,25.51
2022-08-03T07:55:11.923Z,25.54
2022-08-03T07:57:42.459Z,25.56
2022-08-03T08:00:18.438Z,25.62
2022-08-03T08:02:48.925Z,25.65
2022-08-03T08:05:19.833Z,25.73
2022-08-03T08:07:50.762Z,25.77
2022-08-03T08:10:22.543Z,25.81
2022-08-03T08:12:53.757Z,25.87
2022-08-03T08:15:27.468Z,25.93
2022-08-03T08:18:02.618Z,26.03
2022-08-03T08:20:39.244Z,26.12
2022-08-03T08:23:41.565Z,26.16
2022-08-03T08:26:04.281Z,26.22
2022-08-03T08:28:33.894Z,26.28
2022-08-03T08:31:04.525Z,26.36
2022-08-03T08:34:03.027Z,26.44
2022-08-03T08:36:27.054Z,26.53
2022-08-03T08:39:03.283Z,26.63
2022-08-03T08:41:34.857Z,26.73
2022-08-03T08:44:08.465Z,26.82
2022-08-03T08:46:41.098Z,26.89
2022-08-03T08:49:13.685Z,26.99
2022-08-03T08:52:00.366Z,27.10
2022-08-03T08:54:40.025Z,27.22
2022-08-03T09:01:09.807Z,27.50
2022-08-03T09:07:58.815Z,27.98
2022-08-03T09:10:30.220Z,28.13
2022-08-03T09:12:58.138Z,28.28
2022-08-03T09:15:27.834Z,28.45
2022-08-03T09:17:58.447Z,28.65
2022-08-03T09:20:29.131Z,28.80
2022-08-03T09:22:58.340Z,28.89
2022-08-03T09:25:34.037Z,28.96
2022-08-03T09:28:07.725Z,29.07
2022-08-03T09:30:36.389Z,29.19
2022-08-03T09:33:06.573Z,29.26
2022-08-03T09:35:53.709Z,29.38
2022-08-03T09:38:26.639Z,29.54
2022-08-03T09:40:59.453Z,29.70
2022-08-03T09:43:28.026Z,29.86
2022-08-03T09:46:04.303Z,30.03
2022-08-03T09:48:34.137Z,30.22
2022-08-03T09:51:13.423Z,30.36
2022-08-03T09:53:57.239Z,30.56
2022-08-03T09:56:39.873Z,30.78
2022-08-03T09:59:07.920Z,30.97
2022-08-03T10:01:38.354Z,31.13
2022-08-03T10:04:05.577Z,31.37
2022-08-03T10:06:33.565Z,31.64
2022-08-03T10:09:09.792Z,31.88
2022-08-03T10:11:41.592Z,32.08
2022-08-03T10:14:18.076Z,32.20
2022-08-03T10:16:47.820Z,32.44
2022-08-03T10:19:16.113Z,32.78
2022-08-03T10:21:50.317Z,33.14
2022-08-03T10:24:24.808Z,33.43
2022-08-03T10:26:59.696Z,33.82
2022-08-03T10:29:29.197Z,34.16
2022-08-03T10:32:00.008Z,34.55
2022-08-03T10:34:34.085Z,34.75
2022-08-03T10:37:07.799Z,34.98
2022-08-03T10:39:35.821Z,35.26
2022-08-03T10:42:05.537Z,35.57
2022-08-03T10:44:42.873Z,35.72
2022-08-03T10:47:11.228Z,35.92
2022-08-03T10:49:39.907Z,36.09
2022-08-03T10:52:12.915Z,36.24
2022-08-03T10:55:07.829Z,36.40
2022-08-03T10:57:50.148Z,36.65
2022-08-03T11:00:21.679Z,36.77
2022-08-03T11:03:13.851Z,36.88
2022-08-03T11:05:42.967Z,36.85
2022-08-03T11:08:25.498Z,36.69
2022-08-03T11:10:55.160Z,36.16
2022-08-03T11:13:25.202Z,36.14
2022-08-03T11:16:01.669Z,36.23
2022-08-03T11:18:30.949Z,36.49
2022-08-03T11:21:00.055Z,36.72
2022-08-03T11:24:05.648Z,36.95
2022-08-03T11:26:34.169Z,37.31
2022-08-03T11:29:28.486Z,37.52
2022-08-03T11:31:56.416Z,37.64
2022-08-03T11:34:24.464Z,37.66
2022-08-03T11:37:27.256Z,37.62
2022-08-03T11:39:57.822Z,37.79
2022-08-03T11:42:47.459Z,37.85
2022-08-03T11:45:15.615Z,37.97
2022-08-03T11:47:50.968Z,38.21
2022-08-03T11:50:20.464Z,38.06
2022-08-03T11:52:49.026Z,37.79
2022-08-03T11:55:20.973Z,37.85
2022-08-03T11:59:10.816Z,37.83
2022-08-03T12:00:36.750Z,37.91
2022-08-03T12:03:07.586Z,38.08
2022-08-03T12:05:41.441Z,38.33
2022-08-03T12:08:11.361Z,38.56
2022-08-03T12:10:39.481Z,38.57
2022-08-03T12:14:08.891Z,38.39
2022-08-03T12:15:58.630Z,38.40
2022-08-03T12:18:26.594Z,38.27
2022-08-03T12:21:05.180Z,38.11
2022-08-03T12:23:37.408Z,38.08
2022-08-03T12:26:07.939Z,38.32
2022-08-03T12:28:37.843Z,38.62
2022-08-03T12:31:08.878Z,38.92
2022-08-03T12:33:58.890Z,39.08
2022-08-03T12:36:28.850Z,39.27
2022-08-03T12:39:00.395Z,39.41
2022-08-03T12:41:35.045Z,39.46
2022-08-03T12:44:05.990Z,39.57
2022-08-03T12:46:41.635Z,39.46
2022-08-03T12:49:16.925Z,39.40
2022-08-03T12:52:05.318Z,39.28
2022-08-03T12:54:38.639Z,38.98
2022-08-03T12:57:16.025Z,38.95
2022-08-03T12:59:53.435Z,38.98
2022-08-03T13:02:24.671Z,39.04
2022-08-03T13:04:53.995Z,39.00
2022-08-03T13:07:22.462Z,38.97
2022-08-03T13:09:52.757Z,38.91
2022-08-03T13:12:21.844Z,38.95
2022-08-03T13:14:52.496Z,38.83
2022-08-03T13:17:20.730Z,38.33
2022-08-03T13:19:49.886Z,38.19
2022-08-03T13:22:19.388Z,38.19
2022-08-03T13:24:49.420Z,38.31
2022-08-03T13:28:04.794Z,38.58
2022-08-03T13:30:08.452Z,38.46
2022-08-03T13:32:36.811Z,38.62
2022-08-03T13:35:06.866Z,38.72
2022-08-03T13:37:35.453Z,38.83
2022-08-03T13:40:05.568Z,38.95
2022-08-03T13:42:36.076Z,39.09
2022-08-03T13:45:05.936Z,39.16
2022-08-03T13:47:34.651Z,39.08
2022-08-03T13:50:03.698Z,39.16
2022-08-03T13:52:33.743Z,39.36
2022-08-03T13:55:01.577Z,39.57
2022-08-03T13:58:04.487Z,39.73
2022-08-03T14:00:26.686Z,40.05
2022-08-03T14:03:06.735Z,40.39
2022-08-03T14:05:38.024Z,40.60
2022-08-03T14:08:06.752Z,40.63
2022-08-03T14:10:37.441Z,40.62
2022-08-03T14:13:05.734Z,40.72
2022-08-03T14:15:38.035Z,40.74
2022-08-03T14:18:11.970Z,40.94
2022-08-03T14:20:47.769Z,41.32
2022-08-03T14:23:18.446Z,41.29
2022-08-03T14:25:52.053Z,40.95
2022-08-03T14:28:21.941Z,40.77
2022-08-03T14:30:50.296Z,40.69
2022-08-03T14:33:18.210Z,40.79
2022-08-03T14:35:46.166Z,40.83
2022-08-03T14:38:14.083Z,40.89
2022-08-03T14:40:42.246Z,41.11
2022-08-03T14:43:10.014Z,41.26
2022-08-03T14:45:38.052Z,41.28
2022-08-03T14:50:29.393Z,41.35
2022-08-03T14:50:54.624Z,41.54
2022-08-03T14:53:22.765Z,41.71
2022-08-03T14:55:52.734Z,41.71
2022-08-03T14:58:22.038Z,41.58
2022-08-03T15:00:49.693Z,41.61
2022-08-03T15:03:20.832Z,41.75
2022-08-03T15:05:48.751Z,41.92
2022-08-03T15:08:16.600Z,41.89
2022-08-03T15:10:45.538Z,41.75
2022-08-03T15:13:14.055Z,41.50
2022-08-03T15:15:42.115Z,41.32
2022-08-03T15:18:09.939Z,41.36
2022-08-03T15:20:46.675Z,41.51
2022-08-03T15:23:16.070Z,41.65
2022-08-03T15:26:03.704Z,41.73
2022-08-03T15:28:33.402Z,41.76
2022-08-03T15:31:01.496Z,41.73
2022-08-03T15:33:30.221Z,41.71
2022-08-03T15:35:59.317Z,41.68
2022-08-03T15:38:27.292Z,41.39
2022-08-03T15:40:55.524Z,41.38
2022-08-03T15:43:23.857Z,41.19
2022-08-03T15:46:19.103Z,41.15
2022-08-03T15:48:40.303Z,41.14
2022-08-03T15:51:08.710Z,41.09
2022-08-03T15:53:36.815Z,41.15
2022-08-03T15:56:12.153Z,41.10
2022-08-03T15:59:09.157Z,40.95
2022-08-03T16:01:30.811Z,41.00
2022-08-03T16:03:58.614Z,41.00
2022-08-03T16:06:35.209Z,40.89
2022-08-03T16:09:23.936Z,40.54
2022-08-03T16:11:52.846Z,39.98
2022-08-03T16:14:32.576Z,39.36
2022-08-03T16:17:04.312Z,38.72
2022-08-03T16:19:33.111Z,38.12
2022-08-03T16:22:01.422Z,37.52
2022-08-03T16:24:31.588Z,37.12
2022-08-03T16:27:00.510Z,36.78
2022-08-03T16:29:29.223Z,36.45
2022-08-03T16:31:57.087Z,36.19
2022-08-03T16:34:25.038Z,35.93
2022-08-03T16:36:53.876Z,35.64
2022-08-03T16:39:21.817Z,35.41
2022-08-03T16:41:53.923Z,35.20
2022-08-03T16:44:30.514Z,35.03
2022-08-03T16:46:58.488Z,34.87
2022-08-03T16:49:55.949Z,34.71
2022-08-03T16:52:16.809Z,34.54
2022-08-03T16:54:52.793Z,34.40
2022-08-03T16:57:58.882Z,34.25
2022-08-03T17:00:32.907Z,34.13
2022-08-03T17:03:00.213Z,34.00
2022-08-03T17:05:28.673Z,33.92
2022-08-03T17:08:12.833Z,33.87
2022-08-03T17:10:42.529Z,33.80
2022-08-03T17:13:21.483Z,33.74
2022-08-03T17:16:00.873Z,33.67
2022-08-03T17:18:33.829Z,33.60
2022-08-03T17:21:05.068Z,33.53
2022-08-03T17:23:44.275Z,33.50
2022-08-03T17:26:21.060Z,33.47
2022-08-03T17:28:57.981Z,33.43
2022-08-03T17:31:31.391Z,33.37
2022-08-03T17:34:02.156Z,33.28
2022-08-03T17:37:02.038Z,33.18
2022-08-03T17:39:41.865Z,33.07
2022-08-03T17:42:31.123Z,32.99
2022-08-03T17:45:01.572Z,32.92
2022-08-03T17:47:42.528Z,32.91
2022-08-03T17:50:24.756Z,32.89
2022-08-03T17:53:00.931Z,32.87
2022-08-03T17:55:58.651Z,32.82
2022-08-03T17:58:27.174Z,32.79
2022-08-03T18:02:00.017Z,32.75
2022-08-03T18:04:06.155Z,32.69
2022-08-03T18:06:55.763Z,32.60
2022-08-03T18:10:03.350Z,32.48
2022-08-03T18:12:24.933Z,32.33
2022-08-03T18:15:01.230Z,32.17
2022-08-03T18:17:58.131Z,32.00
2022-08-03T18:20:32.256Z,31.77
2022-08-03T18:23:06.791Z,31.56
2022-08-03T18:25:45.162Z,31.36
2022-08-03T18:28:19.500Z,31.15
2022-08-03T18:30:53.200Z,30.94
2022-08-03T18:34:16.483Z,30.73
2022-08-03T18:36:11.652Z,30.51
2022-08-03T18:38:47.429Z,30.30
2022-08-03T18:41:32.619Z,30.09
2022-08-03T18:44:08.146Z,29.90
2022-08-03T18:47:06.891Z,29.72
2022-08-03T18:49:46.426Z,29.56
2022-08-03T18:52:22.011Z,29.41
2022-08-03T18:55:14.012Z,29.27
2022-08-03T18:58:00.279Z,29.08
2022-08-03T19:00:54.305Z,28.91
2022-08-03T19:06:21.030Z,28.54
2022-08-03T19:08:55.782Z,28.40
2022-08-03T19:11:29.771Z,28.25
2022-08-03T19:14:22.680Z,28.08
2022-08-03T19:17:06.878Z,27.93
2022-08-03T19:19:43.683Z,27.79
2022-08-03T19:22:16.350Z,27.64
2022-08-03T19:24:46.435Z,27.51
2022-08-03T19:27:16.070Z,27.40
2022-08-03T19:30:00.452Z,27.29
2022-08-03T19:32:31.846Z,27.18
2022-08-03T19:35:01.615Z,27.08
2022-08-03T19:37:38.399Z,26.99
2022-08-03T19:40:12.414Z,26.92
2022-08-03T19:42:44.762Z,26.83
2022-08-03T19:45:21.609Z,26.73
2022-08-03T19:47:56.157Z,26.64
2022-08-03T19:50:26.546Z,26.55
2022-08-03T19:52:59.992Z,26.47
2022-08-03T19:55:32.222Z,26.39
2022-08-03T19:58:03.261Z,26.33
2022-08-03T20:00:36.773Z,26.27
2022-08-03T20:03:07.028Z,26.21
2022-08-03T20:05:51.952Z,26.13
2022-08-03T20:08:21.591Z,26.07
2022-08-03T20:10:49.739Z,25.99
2022-08-03T20:13:21.134Z,25.93
2022-08-03T20:15:53.371Z,25.85
2022-08-03T20:18:22.514Z,25.78
2022-08-03T20:20:54.506Z,25.71
2022-08-03T20:23:26.698Z,25.64
2022-08-03T20:26:06.107Z,25.58
2022-08-03T20:28:49.789Z,25.54
2022-08-03T20:31:23.813Z,25.50
2022-08-03T20:34:00.835Z,25.47
2022-08-03T20:36:28.736Z,25.43
2022-08-03T20:38:58.469Z,25.36
2022-08-03T20:41:27.602Z,25.31
2022-08-03T20:43:55.569Z,25.25
2022-08-03T20:46:32.568Z,25.18
2022-08-03T20:49:07.093Z,25.10
2022-08-03T20:51:49.744Z,25.03
2022-08-03T20:54:29.661Z,24.96
2022-08-03T20:57:00.022Z,24.90
2022-08-03T20:59:34.842Z,24.84
2022-08-03T21:02:19.694Z,24.78
2022-08-03T21:04:57.338Z,24.73
2022-08-03T21:07:45.706Z,24.68
2022-08-03T21:10:17.652Z,24.61
2022-08-03T21:12:51.125Z,24.55
2022-08-03T21:13:09.723Z,28.72
2022-08-03T21:16:06.700Z,24.51
2022-08-03T21:18:17.458Z,24.45
2022-08-03T21:20:47.747Z,24.40
2022-08-03T21:23:35.029Z,24.36
2022-08-03T21:26:10.773Z,24.31
2022-08-03T21:28:39.254Z,24.27
2022-08-03T21:31:07.742Z,24.23
2022-08-03T21:33:36.245Z,24.17
2022-08-03T21:36:05.545Z,24.12
2022-08-03T21:38:35.429Z,24.09
2022-08-03T21:41:03.747Z,24.05
2022-08-03T21:43:32.180Z,24.02
2022-08-03T21:46:02.111Z,24.01
2022-08-03T21:48:36.065Z,23.98
2022-08-03T21:51:05.379Z,23.94
2022-08-03T21:54:03.780Z,23.91
2022-08-03T21:56:28.754Z,23.86
2022-08-03T21:59:03.622Z,23.81
2022-08-03T22:01:35.527Z,23.78
2022-08-03T22:04:06.844Z,23.74
2022-08-03T22:06:35.293Z,23.72
2022-08-03T22:09:05.999Z,23.70
2022-08-03T22:11:35.983Z,23.66
2022-08-03T22:14:04.729Z,23.63
2022-08-03T22:16:32.981Z,23.60
2022-08-03T22:19:01.369Z,23.56
2022-08-03T22:21:36.046Z,23.53
2022-08-03T22:24:07.174Z,23.50
2022-08-03T22:26:39.390Z,23.45
2022-08-03T22:29:08.384Z,23.46
2022-08-03T22:31:58.439Z,23.42
2022-08-03T22:34:27.223Z,23.38
2022-08-03T22:37:01.132Z,23.35
2022-08-03T22:39:30.159Z,23.32
2022-08-03T22:41:58.929Z,23.32
2022-08-03T22:44:30.112Z,23.31
2022-08-03T22:46:59.427Z,23.28
2022-08-03T22:49:28.993Z,23.25
2022-08-03T22:52:06.804Z,23.23
2022-08-03T22:54:36.616Z,23.21
2022-08-03T22:57:08.038Z,23.20
2022-08-03T22:59:41.916Z,23.17
2022-08-03T23:02:21.043Z,23.16
2022-08-03T23:04:55.689Z,23.15
2022-08-03T23:07:31.879Z,23.17
2022-08-03T23:10:02.195Z,23.19
2022-08-03T23:12:33.954Z,23.19
2022-08-03T23:15:05.371Z,23.19
2022-08-03T23:17:57.414Z,23.17
2022-08-03T23:20:26.719Z,23.14
2022-08-03T23:22:57.032Z,23.14
2022-08-03T23:25:25.061Z,23.15
2022-08-03T23:28:05.461Z,23.17
2022-08-03T23:30:38.011Z,23.19
2022-08-03T23:33:07.880Z,23.21
2022-08-03T23:36:27.889Z,23.23
2022-08-03T23:38:54.427Z,23.27
2022-08-03T23:41:25.874Z,23.29
2022-08-03T23:43:54.572Z,23.31
2022-08-03T23:46:25.847Z,23.30
2022-08-03T23:48:56.552Z,23.29
2022-08-03T23:51:38.635Z,23.27
2022-08-03T23:54:19.072Z,23.23
2022-08-03T23:57:00.482Z,23.19
2022-08-03T23:59:46.632Z,23.26
